sensor_id;sensor_type;location;lat;lon;timestamp;pressure;altitude;pressure_sealevel;temperature;humidity
8047;BME280;67150;42.516;23.358;2023-03-04T00:02:16;88279.44;;;4.38;66.80
8047;BME280;67150;42.516;23.358;2023-03-04T00:05:03;88281.06;;;4.39;66.61
8047;BME280;67150;42.516;23.358;2023-03-04T00:07:49;88277.03;;;4.36;66.77
8047;BME280;67150;42.516;23.358;2023-03-04T00:10:34;88276.13;;;4.37;66.59
8047;BME280;67150;42.516;23.358;2023-03-04T00:13:20;88283.44;;;4.40;66.41
8047;BME280;67150;42.516;23.358;2023-03-04T00:16:07;88280.16;;;4.40;66.84
8047;BME280;67150;42.516;23.358;2023-03-04T00:18:55;88284.25;;;4.41;66.41
8047;BME280;67150;42.516;23.358;2023-03-04T00:21:41;88269.88;;;4.30;66.66
8047;BME280;67150;42.516;23.358;2023-03-04T00:24:27;88283.53;;;4.39;66.49
8047;BME280;67150;42.516;23.358;2023-03-04T00:27:12;88289.34;;;4.39;66.31
8047;BME280;67150;42.516;23.358;2023-03-04T00:29:58;88285.22;;;4.38;66.62
8047;BME280;67150;42.516;23.358;2023-03-04T00:32:44;88284.34;;;4.39;66.67
8047;BME280;67150;42.516;23.358;2023-03-04T00:35:32;88285.38;;;4.35;66.62
8047;BME280;67150;42.516;23.358;2023-03-04T00:38:17;88288.59;;;4.37;66.78
8047;BME280;67150;42.516;23.358;2023-03-04T00:41:04;88278.63;;;4.37;66.96
8047;BME280;67150;42.516;23.358;2023-03-04T00:43:49;88282.72;;;4.38;66.31
8047;BME280;67150;42.516;23.358;2023-03-04T00:46:35;88284.34;;;4.39;66.54
8047;BME280;67150;42.516;23.358;2023-03-04T00:49:21;88276.78;;;4.41;66.26
8047;BME280;67150;42.516;23.358;2023-03-04T00:52:08;88275.25;;;4.38;66.31
8047;BME280;67150;42.516;23.358;2023-03-04T00:54:54;88263.50;;;4.40;66.28
8047;BME280;67150;42.516;23.358;2023-03-04T00:57:40;88266.91;;;4.39;66.39
8047;BME280;67150;42.516;23.358;2023-03-04T01:00:26;88260.28;;;4.38;66.54
8047;BME280;67150;42.516;23.358;2023-03-04T01:03:12;88264.31;;;4.41;66.47
8047;BME280;67150;42.516;23.358;2023-03-04T01:05:58;88263.66;;;4.37;66.76
8047;BME280;67150;42.516;23.358;2023-03-04T01:08:45;88247.91;;;4.37;66.31
8047;BME280;67150;42.516;23.358;2023-03-04T01:11:30;88243.72;;;4.37;66.39
8047;BME280;67150;42.516;23.358;2023-03-04T01:14:16;88243.00;;;4.35;66.66
8047;BME280;67150;42.516;23.358;2023-03-04T01:17:02;88250.47;;;4.35;66.71
8047;BME280;67150;42.516;23.358;2023-03-04T01:19:48;88245.50;;;4.35;66.61
8047;BME280;67150;42.516;23.358;2023-03-04T01:22:34;88247.91;;;4.37;66.63
8047;BME280;67150;42.516;23.358;2023-03-04T01:25:21;88241.56;;;4.31;66.80
8047;BME280;67150;42.516;23.358;2023-03-04T01:28:07;88239.69;;;4.35;66.96
8047;BME280;67150;42.516;23.358;2023-03-04T01:30:52;88240.50;;;4.35;66.76
8047;BME280;67150;42.516;23.358;2023-03-04T01:33:38;88243.91;;;4.34;66.62
8047;BME280;67150;42.516;23.358;2023-03-04T01:36:24;88243.09;;;4.34;66.60
8047;BME280;67150;42.516;23.358;2023-03-04T01:39:10;88237.13;;;4.36;66.50
8047;BME280;67150;42.516;23.358;2023-03-04T01:41:58;88233.94;;;4.34;66.87
8047;BME280;67150;42.516;23.358;2023-03-04T01:44:44;88236.50;;;4.33;66.89
8047;BME280;67150;42.516;23.358;2023-03-04T01:47:32;88233.19;;;4.32;66.72
8047;BME280;67150;42.516;23.358;2023-03-04T01:50:21;88221.03;;;4.26;66.45
8047;BME280;67150;42.516;23.358;2023-03-04T01:53:16;88230.69;;;4.32;66.74
8047;BME280;67150;42.516;23.358;2023-03-04T01:56:11;88233.03;;;4.35;66.41
8047;BME280;67150;42.516;23.358;2023-03-04T01:59:08;88232.31;;;4.33;66.63
8047;BME280;67150;42.516;23.358;2023-03-04T02:01:56;88227.31;;;4.33;66.37
8047;BME280;67150;42.516;23.358;2023-03-04T02:04:43;88229.88;;;4.32;66.73
8047;BME280;67150;42.516;23.358;2023-03-04T02:07:29;88227.50;;;4.30;66.54
8047;BME280;67150;42.516;23.358;2023-03-04T02:10:15;88217.34;;;4.33;66.73
8047;BME280;67150;42.516;23.358;2023-03-04T02:13:02;88216.63;;;4.31;66.48
8047;BME280;67150;42.516;23.358;2023-03-04T02:15:49;88219.84;;;4.33;66.47
8047;BME280;67150;42.516;23.358;2023-03-04T02:18:35;88216.63;;;4.31;66.66
8047;BME280;67150;42.516;23.358;2023-03-04T02:21:23;88222.34;;;4.33;66.85
8047;BME280;67150;42.516;23.358;2023-03-04T02:24:14;88225.88;;;4.29;66.66
8047;BME280;67150;42.516;23.358;2023-03-04T02:27:04;88232.63;;;4.27;66.65
8047;BME280;67150;42.516;23.358;2023-03-04T02:29:50;88229.28;;;4.28;66.91
8047;BME280;67150;42.516;23.358;2023-03-04T02:32:36;88220.88;;;4.29;66.73
8047;BME280;67150;42.516;23.358;2023-03-04T02:35:22;88222.66;;;4.27;67.09
8047;BME280;67150;42.516;23.358;2023-03-04T02:38:08;88220.81;;;4.31;66.47
8047;BME280;67150;42.516;23.358;2023-03-04T02:40:55;88222.81;;;4.24;66.68
8047;BME280;67150;42.516;23.358;2023-03-04T02:43:44;88212.69;;;4.27;66.53
8047;BME280;67150;42.516;23.358;2023-03-04T02:46:31;88211.81;;;4.28;66.43
8047;BME280;67150;42.516;23.358;2023-03-04T02:49:17;88215.91;;;4.29;66.44
8047;BME280;67150;42.516;23.358;2023-03-04T02:52:06;88216.81;;;4.28;66.74
8047;BME280;67150;42.516;23.358;2023-03-04T02:54:52;88215.91;;;4.29;66.77
8047;BME280;67150;42.516;23.358;2023-03-04T02:57:37;88210.75;;;4.32;66.25
8047;BME280;67150;42.516;23.358;2023-03-04T03:00:25;88207.69;;;4.27;66.98
8047;BME280;67150;42.516;23.358;2023-03-04T03:03:11;88208.56;;;4.26;66.99
8047;BME280;67150;42.516;23.358;2023-03-04T03:05:57;88206.19;;;4.25;66.81
8047;BME280;67150;42.516;23.358;2023-03-04T03:08:43;88209.47;;;4.25;67.00
8047;BME280;67150;42.516;23.358;2023-03-04T03:11:29;88211.06;;;4.26;66.78
8047;BME280;67150;42.516;23.358;2023-03-04T03:14:15;88216.06;;;4.26;66.36
8047;BME280;67150;42.516;23.358;2023-03-04T03:17:02;88208.84;;;4.22;66.60
8047;BME280;67150;42.516;23.358;2023-03-04T03:19:48;88207.94;;;4.23;66.79
8047;BME280;67150;42.516;23.358;2023-03-04T03:22:35;88203.84;;;4.22;67.13
8047;BME280;67150;42.516;23.358;2023-03-04T03:25:21;88197.19;;;4.22;66.69
8047;BME280;67150;42.516;23.358;2023-03-04T03:28:07;88197.19;;;4.22;66.81
8047;BME280;67150;42.516;23.358;2023-03-04T03:30:53;88201.25;;;4.23;66.76
8047;BME280;67150;42.516;23.358;2023-03-04T03:33:40;88199.69;;;4.22;66.93
8047;BME280;67150;42.516;23.358;2023-03-04T03:36:25;88193.88;;;4.22;66.86
8047;BME280;67150;42.516;23.358;2023-03-04T03:39:11;88193.94;;;4.20;66.70
8047;BME280;67150;42.516;23.358;2023-03-04T03:41:58;88192.91;;;4.24;66.79
8047;BME280;67150;42.516;23.358;2023-03-04T03:44:44;88186.47;;;4.20;66.85
8047;BME280;67150;42.516;23.358;2023-03-04T03:47:30;88189.72;;;4.22;66.88
8047;BME280;67150;42.516;23.358;2023-03-04T03:50:17;88189.72;;;4.22;66.58
8047;BME280;67150;42.516;23.358;2023-03-04T03:53:03;88186.47;;;4.20;66.80
8047;BME280;67150;42.516;23.358;2023-03-04T03:55:49;88184.72;;;4.22;66.94
8047;BME280;67150;42.516;23.358;2023-03-04T03:58:35;88183.09;;;4.21;66.76
8047;BME280;67150;42.516;23.358;2023-03-04T04:01:20;88189.88;;;4.19;66.53
8047;BME280;67150;42.516;23.358;2023-03-04T04:04:07;88190.75;;;4.18;66.67
8047;BME280;67150;42.516;23.358;2023-03-04T04:06:54;88188.97;;;4.20;66.62
8047;BME280;67150;42.516;23.358;2023-03-04T04:09:40;88195.66;;;4.20;66.73
8047;BME280;67150;42.516;23.358;2023-03-04T04:12:26;88189.88;;;4.19;66.41
8047;BME280;67150;42.516;23.358;2023-03-04T04:15:12;88194.13;;;4.17;66.91
8047;BME280;67150;42.516;23.358;2023-03-04T04:17:58;88195.66;;;4.20;66.67
8047;BME280;67150;42.516;23.358;2023-03-04T04:20:45;88190.84;;;4.17;67.05
8047;BME280;67150;42.516;23.358;2023-03-04T04:23:32;88191.47;;;4.20;66.68
8047;BME280;67150;42.516;23.358;2023-03-04T04:26:19;88189.06;;;4.19;66.81
8047;BME280;67150;42.516;23.358;2023-03-04T04:29:04;88191.47;;;4.20;66.41
8047;BME280;67150;42.516;23.358;2023-03-04T04:31:50;88188.09;;;4.21;66.40
8047;BME280;67150;42.516;23.358;2023-03-04T04:34:36;88184.88;;;4.19;66.82
8047;BME280;67150;42.516;23.358;2023-03-04T04:37:22;88183.09;;;4.21;66.57
8047;BME280;67150;42.516;23.358;2023-03-04T04:40:11;88179.91;;;4.19;66.69
8047;BME280;67150;42.516;23.358;2023-03-04T04:42:57;88183.25;;;4.18;66.32
8047;BME280;67150;42.516;23.358;2023-03-04T04:45:43;88182.56;;;4.16;66.49
8047;BME280;67150;42.516;23.358;2023-03-04T04:48:29;88188.25;;;4.18;66.38
8047;BME280;67150;42.516;23.358;2023-03-04T04:51:14;88181.75;;;4.16;66.74
8047;BME280;67150;42.516;23.358;2023-03-04T04:54:00;88183.25;;;4.18;66.65
8047;BME280;67150;42.516;23.358;2023-03-04T04:56:48;88183.25;;;4.18;66.51
8047;BME280;67150;42.516;23.358;2023-03-04T04:59:33;88184.94;;;4.18;66.42
8047;BME280;67150;42.516;23.358;2023-03-04T05:02:19;88191.72;;;4.16;66.76
8047;BME280;67150;42.516;23.358;2023-03-04T05:05:06;88191.00;;;4.14;66.53
8047;BME280;67150;42.516;23.358;2023-03-04T05:07:51;88197.50;;;4.16;66.61
8047;BME280;67150;42.516;23.358;2023-03-04T05:10:37;88200.72;;;4.18;66.20
8047;BME280;67150;42.516;23.358;2023-03-04T05:13:25;88200.97;;;4.14;66.40
8047;BME280;67150;42.516;23.358;2023-03-04T05:16:10;88194.03;;;4.19;66.43
8047;BME280;67150;42.516;23.358;2023-03-04T05:18:57;88194.75;;;4.21;66.10
8047;BME280;67150;42.516;23.358;2023-03-04T05:21:42;88199.09;;;4.17;66.27
8047;BME280;67150;42.516;23.358;2023-03-04T05:24:28;88200.72;;;4.18;66.52
8047;BME280;67150;42.516;23.358;2023-03-04T05:27:14;88193.41;;;4.15;66.29
8047;BME280;67150;42.516;23.358;2023-03-04T05:30:02;88193.50;;;4.14;66.21
8047;BME280;67150;42.516;23.358;2023-03-04T05:32:48;88193.34;;;4.17;66.44
8047;BME280;67150;42.516;23.358;2023-03-04T05:35:35;88200.97;;;4.14;66.45
8047;BME280;67150;42.516;23.358;2023-03-04T05:38:21;88190.91;;;4.15;66.32
8047;BME280;67150;42.516;23.358;2023-03-04T05:41:09;88186.34;;;4.08;66.21
8047;BME280;67150;42.516;23.358;2023-03-04T05:43:54;88199.19;;;4.16;66.50
8047;BME280;67150;42.516;23.358;2023-03-04T05:46:42;88195.50;;;4.07;66.91
8047;BME280;67150;42.516;23.358;2023-03-04T05:49:28;88206.03;;;4.12;66.60
8047;BME280;67150;42.516;23.358;2023-03-04T05:52:14;88208.47;;;4.14;66.34
8047;BME280;67150;42.516;23.358;2023-03-04T05:55:00;88199.09;;;4.17;66.36
8047;BME280;67150;42.516;23.358;2023-03-04T05:57:46;88205.00;;;4.16;66.06
8047;BME280;67150;42.516;23.358;2023-03-04T06:00:33;88205.88;;;4.15;66.50
8047;BME280;67150;42.516;23.358;2023-03-04T06:03:21;88210.16;;;4.13;66.50
8047;BME280;67150;42.516;23.358;2023-03-04T06:06:08;88198.56;;;4.12;66.15
8047;BME280;67150;42.516;23.358;2023-03-04T06:08:54;88209.06;;;4.17;66.46
8047;BME280;67150;42.516;23.358;2023-03-04T06:11:39;88210.69;;;4.18;66.00
8047;BME280;67150;42.516;23.358;2023-03-04T06:14:26;88218.34;;;4.15;66.56
8047;BME280;67150;42.516;23.358;2023-03-04T06:17:12;88215.03;;;4.15;66.31
8047;BME280;67150;42.516;23.358;2023-03-04T06:19:59;88224.13;;;4.16;66.04
8047;BME280;67150;42.516;23.358;2023-03-04T06:22:45;88223.00;;;4.21;66.23
8047;BME280;67150;42.516;23.358;2023-03-04T06:25:31;88231.34;;;4.20;66.10
8047;BME280;67150;42.516;23.358;2023-03-04T06:28:18;88225.75;;;4.17;66.33
8047;BME280;67150;42.516;23.358;2023-03-04T06:31:04;88228.06;;;4.20;66.17
8047;BME280;67150;42.516;23.358;2023-03-04T06:33:50;88232.25;;;4.19;66.32
8047;BME280;67150;42.516;23.358;2023-03-04T06:36:37;88234.75;;;4.19;66.07
8047;BME280;67150;42.516;23.358;2023-03-04T06:39:23;88234.00;;;4.17;66.44
8047;BME280;67150;42.516;23.358;2023-03-04T06:42:09;88237.56;;;4.13;66.32
8047;BME280;67150;42.516;23.358;2023-03-04T06:44:55;88233.84;;;4.20;66.39
8047;BME280;67150;42.516;23.358;2023-03-04T06:47:41;88240.53;;;4.20;66.06
8047;BME280;67150;42.516;23.358;2023-03-04T06:50:28;88240.69;;;4.17;66.38
8047;BME280;67150;42.516;23.358;2023-03-04T06:53:15;88242.38;;;4.16;66.25
8047;BME280;67150;42.516;23.358;2023-03-04T06:56:02;88244.72;;;4.19;66.04
8047;BME280;67150;42.516;23.358;2023-03-04T06:58:47;88238.91;;;4.19;66.24
8047;BME280;67150;42.516;23.358;2023-03-04T07:01:33;88244.88;;;4.16;66.31
8047;BME280;67150;42.516;23.358;2023-03-04T07:04:20;88239.00;;;4.17;66.18
8047;BME280;67150;42.516;23.358;2023-03-04T07:07:09;88243.91;;;4.19;66.27
8047;BME280;67150;42.516;23.358;2023-03-04T07:09:56;88246.47;;;4.17;66.43
8047;BME280;67150;42.516;23.358;2023-03-04T07:12:42;88244.94;;;4.15;66.73
8047;BME280;67150;42.516;23.358;2023-03-04T07:15:28;88253.78;;;4.20;66.35
8047;BME280;67150;42.516;23.358;2023-03-04T07:18:14;88254.84;;;4.16;66.49
8047;BME280;67150;42.516;23.358;2023-03-04T07:21:00;88244.13;;;4.14;66.25
8047;BME280;67150;42.516;23.358;2023-03-04T07:23:46;88247.38;;;4.16;66.26
8047;BME280;67150;42.516;23.358;2023-03-04T07:26:34;88250.56;;;4.18;66.47
8047;BME280;67150;42.516;23.358;2023-03-04T07:29:21;88250.03;;;4.13;66.54
8047;BME280;67150;42.516;23.358;2023-03-04T07:32:07;88247.53;;;4.13;66.32
8047;BME280;67150;42.516;23.358;2023-03-04T07:34:53;88247.69;;;4.10;66.69
8047;BME280;67150;42.516;23.358;2023-03-04T07:37:39;88241.66;;;4.14;66.33
8047;BME280;67150;42.516;23.358;2023-03-04T07:40:25;88239.16;;;4.14;66.46
8047;BME280;67150;42.516;23.358;2023-03-04T07:43:13;88253.06;;;4.18;66.14
8047;BME280;67150;42.516;23.358;2023-03-04T07:46:00;88248.09;;;4.18;66.16
8047;BME280;67150;42.516;23.358;2023-03-04T07:48:46;88248.09;;;4.18;66.08
8047;BME280;67150;42.516;23.358;2023-03-04T07:51:31;88250.69;;;4.17;66.13
8047;BME280;67150;42.516;23.358;2023-03-04T07:54:18;88242.44;;;4.15;66.32
8047;BME280;67150;42.516;23.358;2023-03-04T07:57:04;88245.03;;;4.13;66.50
8047;BME280;67150;42.516;23.358;2023-03-04T07:59:51;88249.78;;;4.18;66.37
8047;BME280;67150;42.516;23.358;2023-03-04T08:02:37;88251.56;;;4.16;66.02
8047;BME280;67150;42.516;23.358;2023-03-04T08:05:23;88254.03;;;4.16;66.04
8047;BME280;67150;42.516;23.358;2023-03-04T08:08:09;88244.72;;;4.19;66.03
8047;BME280;67150;42.516;23.358;2023-03-04T08:10:55;88243.97;;;4.17;66.19
8047;BME280;67150;42.516;23.358;2023-03-04T08:13:41;88235.31;;;4.09;66.49
8047;BME280;67150;42.516;23.358;2023-03-04T08:16:29;88247.22;;;4.19;65.92
8047;BME280;67150;42.516;23.358;2023-03-04T08:19:15;88246.63;;;4.14;66.21
8047;BME280;67150;42.516;23.358;2023-03-04T08:22:01;88243.38;;;4.14;66.54
8047;BME280;67150;42.516;23.358;2023-03-04T08:24:46;88241.47;;;4.17;66.00
8047;BME280;67150;42.516;23.358;2023-03-04T08:27:32;88241.41;;;4.19;66.42
8047;BME280;67150;42.516;23.358;2023-03-04T08:30:20;88249.06;;;4.16;66.49
8047;BME280;67150;42.516;23.358;2023-03-04T08:33:08;88243.59;;;4.09;66.78
8047;BME280;67150;42.516;23.358;2023-03-04T08:35:54;88249.88;;;4.16;66.27
8047;BME280;67150;42.516;23.358;2023-03-04T08:38:40;88244.72;;;4.19;65.95
8047;BME280;67150;42.516;23.358;2023-03-04T08:41:26;88249.72;;;4.19;66.42
8047;BME280;67150;42.516;23.358;2023-03-04T08:44:13;88245.69;;;4.17;66.28
8047;BME280;67150;42.516;23.358;2023-03-04T08:46:59;88245.53;;;4.20;66.35
8047;BME280;67150;42.516;23.358;2023-03-04T08:49:46;88240.78;;;4.15;66.12
8047;BME280;67150;42.516;23.358;2023-03-04T08:52:31;88245.75;;;4.15;66.58
8047;BME280;67150;42.516;23.358;2023-03-04T08:55:17;88248.19;;;4.17;66.19
8047;BME280;67150;42.516;23.358;2023-03-04T08:58:03;88236.75;;;4.13;66.31
8047;BME280;67150;42.516;23.358;2023-03-04T09:00:49;88241.75;;;4.13;66.25
8047;BME280;67150;42.516;23.358;2023-03-04T09:03:35;88236.81;;;4.11;66.26
8047;BME280;67150;42.516;23.358;2023-03-04T09:06:23;88235.94;;;4.12;66.61
8047;BME280;67150;42.516;23.358;2023-03-04T09:09:10;88233.56;;;4.11;66.42
8047;BME280;67150;42.516;23.358;2023-03-04T09:11:55;88233.47;;;4.12;66.51
8047;BME280;67150;42.516;23.358;2023-03-04T09:14:41;88234.16;;;4.14;66.38
8047;BME280;67150;42.516;23.358;2023-03-04T09:17:27;88238.13;;;4.18;66.35
8047;BME280;67150;42.516;23.358;2023-03-04T09:20:13;88235.78;;;4.15;66.58
8047;BME280;67150;42.516;23.358;2023-03-04T09:23:00;88236.66;;;4.14;66.19
8047;BME280;67150;42.516;23.358;2023-03-04T09:25:48;88225.09;;;4.13;66.43
8047;BME280;67150;42.516;23.358;2023-03-04T09:28:34;88228.13;;;4.18;66.26
8047;BME280;67150;42.516;23.358;2023-03-04T09:31:20;88226.53;;;4.17;66.06
8047;BME280;67150;42.516;23.358;2023-03-04T09:34:06;88225.59;;;4.20;66.45
8047;BME280;67150;42.516;23.358;2023-03-04T09:36:52;88228.13;;;4.18;66.07
8047;BME280;67150;42.516;23.358;2023-03-04T09:39:40;88228.94;;;4.19;66.47
8047;BME280;67150;42.516;23.358;2023-03-04T09:42:31;88227.44;;;4.16;66.22
8047;BME280;67150;42.516;23.358;2023-03-04T09:45:20;88224.44;;;4.25;66.27
8047;BME280;67150;42.516;23.358;2023-03-04T09:48:09;88219.47;;;4.25;66.17
8047;BME280;67150;42.516;23.358;2023-03-04T09:51:08;88218.00;;;4.21;66.15
8047;BME280;67150;42.516;23.358;2023-03-04T09:54:05;88213.50;;;4.28;66.34
8047;BME280;67150;42.516;23.358;2023-03-04T09:56:58;88211.81;;;4.28;65.43
8047;BME280;67150;42.516;23.358;2023-03-04T09:59:48;88208.78;;;4.37;66.18
8047;BME280;67150;42.516;23.358;2023-03-04T10:02:44;88206.72;;;4.45;65.14
8047;BME280;67150;42.516;23.358;2023-03-04T10:05:32;88194.97;;;4.32;65.54
8047;BME280;67150;42.516;23.358;2023-03-04T10:08:39;88190.28;;;4.41;65.31
8047;BME280;67150;42.516;23.358;2023-03-04T10:11:28;88199.50;;;4.25;66.55
8047;BME280;67150;42.516;23.358;2023-03-04T10:14:32;88196.44;;;4.20;67.22
8047;BME280;67150;42.516;23.358;2023-03-04T10:17:23;88195.66;;;4.20;67.93
8047;BME280;67150;42.516;23.358;2023-03-04T10:20:18;88194.38;;;4.28;67.54
8047;BME280;67150;42.516;23.358;2023-03-04T10:23:09;88199.56;;;4.24;67.41
8047;BME280;67150;42.516;23.358;2023-03-04T10:25:56;88191.28;;;4.23;67.66
8047;BME280;67150;42.516;23.358;2023-03-04T10:28:43;88192.19;;;4.22;67.97
8047;BME280;67150;42.516;23.358;2023-03-04T10:31:33;88190.41;;;4.24;68.27
8047;BME280;67150;42.516;23.358;2023-03-04T10:34:19;88182.78;;;4.27;68.06
8047;BME280;67150;42.516;23.358;2023-03-04T10:37:06;88181.31;;;4.23;68.43
8047;BME280;67150;42.516;23.358;2023-03-04T10:39:52;88174.59;;;4.25;67.89
8047;BME280;67150;42.516;23.358;2023-03-04T10:42:38;88177.25;;;4.22;67.75
8047;BME280;67150;42.516;23.358;2023-03-04T10:45:26;88176.97;;;4.27;68.26
8047;BME280;67150;42.516;23.358;2023-03-04T10:48:22;88170.13;;;4.30;68.20
8047;BME280;67150;42.516;23.358;2023-03-04T10:51:17;88166.19;;;4.26;68.07
8047;BME280;67150;42.516;23.358;2023-03-04T10:54:06;88158.75;;;4.40;66.94
8047;BME280;67150;42.516;23.358;2023-03-04T10:56:59;88161.59;;;4.34;66.90
8047;BME280;67150;42.516;23.358;2023-03-04T10:59:45;88153.22;;;4.35;66.29
8047;BME280;67150;42.516;23.358;2023-03-04T11:02:34;88157.34;;;4.36;65.95
8047;BME280;67150;42.516;23.358;2023-03-04T11:05:23;88153.50;;;4.31;66.82
8047;BME280;67150;42.516;23.358;2023-03-04T11:08:16;88140.22;;;4.30;66.66
8047;BME280;67150;42.516;23.358;2023-03-04T11:11:03;88146.00;;;4.31;66.44
8047;BME280;67150;42.516;23.358;2023-03-04T11:13:55;88130.13;;;4.32;66.19
8047;BME280;67150;42.516;23.358;2023-03-04T11:16:52;88124.97;;;4.35;65.91
8047;BME280;67150;42.516;23.358;2023-03-04T11:19:40;88127.66;;;4.32;65.86
8047;BME280;67150;42.516;23.358;2023-03-04T11:22:30;88125.25;;;4.30;66.48
8047;BME280;67150;42.516;23.358;2023-03-04T11:25:22;88125.25;;;4.30;66.06
8047;BME280;67150;42.516;23.358;2023-03-04T11:28:15;88118.56;;;4.31;66.12
8047;BME280;67150;42.516;23.358;2023-03-04T11:31:05;88126.13;;;4.29;66.19
8047;BME280;67150;42.516;23.358;2023-03-04T11:33:57;88117.78;;;4.30;66.28
8047;BME280;67150;42.516;23.358;2023-03-04T11:36:53;88117.78;;;4.30;65.66
8047;BME280;67150;42.516;23.358;2023-03-04T11:39:46;88111.00;;;4.32;66.03
8047;BME280;67150;42.516;23.358;2023-03-04T11:42:39;88100.50;;;4.27;65.87
8047;BME280;67150;42.516;23.358;2023-03-04T11:45:32;88099.59;;;4.28;65.75
8047;BME280;67150;42.516;23.358;2023-03-04T11:48:34;88096.22;;;4.29;65.82
8047;BME280;67150;42.516;23.358;2023-03-04T11:51:30;88096.84;;;4.33;65.79
8047;BME280;67150;42.516;23.358;2023-03-04T11:54:28;88098.63;;;4.31;65.86
8047;BME280;67150;42.516;23.358;2023-03-04T11:57:27;88095.16;;;4.33;65.23
8047;BME280;67150;42.516;23.358;2023-03-04T12:00:24;88088.66;;;4.31;65.20
8047;BME280;67150;42.516;23.358;2023-03-04T12:06:47;88099.59;;;4.28;65.65
8047;BME280;67150;42.516;23.358;2023-03-04T12:09:46;88087.13;;;4.28;65.28
8047;BME280;67150;42.516;23.358;2023-03-04T12:12:53;88090.50;;;4.27;65.48
8047;BME280;67150;42.516;23.358;2023-03-04T12:15:48;88093.19;;;4.24;65.54
8047;BME280;67150;42.516;23.358;2023-03-04T12:18:47;88093.88;;;4.26;65.75
8047;BME280;67150;42.516;23.358;2023-03-04T12:25:23;88088.19;;;4.24;65.89
8047;BME280;67150;42.516;23.358;2023-03-04T12:28:34;88091.50;;;4.25;65.91
8047;BME280;67150;42.516;23.358;2023-03-04T12:31:31;88083.22;;;4.24;66.06
8047;BME280;67150;42.516;23.358;2023-03-04T12:34:34;88085.00;;;4.22;66.08
8047;BME280;67150;42.516;23.358;2023-03-04T12:37:39;88079.91;;;4.24;65.83
8047;BME280;67150;42.516;23.358;2023-03-04T12:40:42;88077.34;;;4.25;65.50
8047;BME280;67150;42.516;23.358;2023-03-04T12:43:41;88073.31;;;4.23;65.53
8047;BME280;67150;42.516;23.358;2023-03-04T12:46:37;88075.03;;;4.22;65.72
8047;BME280;67150;42.516;23.358;2023-03-04T12:49:39;88072.53;;;4.22;66.04
8047;BME280;67150;42.516;23.358;2023-03-04T12:52:39;88068.59;;;4.18;66.01
8047;BME280;67150;42.516;23.358;2023-03-04T12:55:36;88070.81;;;4.23;65.99
8047;BME280;67150;42.516;23.358;2023-03-04T12:58:24;88064.94;;;4.24;65.86
8047;BME280;67150;42.516;23.358;2023-03-04T13:01:17;88064.25;;;4.22;65.83
8047;BME280;67150;42.516;23.358;2023-03-04T13:04:11;88055.78;;;4.24;65.50
8047;BME280;67150;42.516;23.358;2023-03-04T13:07:09;88053.47;;;4.21;65.91
8047;BME280;67150;42.516;23.358;2023-03-04T13:10:00;88048.47;;;4.21;65.64
8047;BME280;67150;42.516;23.358;2023-03-04T13:12:49;88046.69;;;4.23;65.74
8047;BME280;67150;42.516;23.358;2023-03-04T13:15:36;88048.47;;;4.21;66.11
8047;BME280;67150;42.516;23.358;2023-03-04T13:18:31;88045.09;;;4.22;66.20
8047;BME280;67150;42.516;23.358;2023-03-04T13:21:22;88041.81;;;4.22;65.77
8047;BME280;67150;42.516;23.358;2023-03-04T13:24:43;88035.13;;;4.22;65.72
8047;BME280;67150;42.516;23.358;2023-03-04T13:27:45;88031.72;;;4.23;65.99
8047;BME280;67150;42.516;23.358;2023-03-04T13:34:01;88025.16;;;4.22;65.91
8047;BME280;67150;42.516;23.358;2023-03-04T13:36:54;88028.53;;;4.21;65.49
8047;BME280;67150;42.516;23.358;2023-03-04T13:39:40;88024.25;;;4.23;65.42
8047;BME280;67150;42.516;23.358;2023-03-04T13:42:41;88015.19;;;4.22;65.39
8047;BME280;67150;42.516;23.358;2023-03-04T13:45:33;88018.56;;;4.21;65.41
8047;BME280;67150;42.516;23.358;2023-03-04T13:48:25;88013.47;;;4.23;65.27
8047;BME280;67150;42.516;23.358;2023-03-04T13:51:16;88015.97;;;4.23;65.36
8047;BME280;67150;42.516;23.358;2023-03-04T13:54:13;88015.19;;;4.22;65.34
8047;BME280;67150;42.516;23.358;2023-03-04T13:57:16;88015.97;;;4.23;65.27
8047;BME280;67150;42.516;23.358;2023-03-04T14:00:05;88011.88;;;4.22;65.23
8047;BME280;67150;42.516;23.358;2023-03-04T14:03:11;88008.59;;;4.21;66.01
8047;BME280;67150;42.516;23.358;2023-03-04T14:06:15;88000.22;;;4.22;65.89
8047;BME280;67150;42.516;23.358;2023-03-04T14:09:12;87999.41;;;4.22;65.37
8047;BME280;67150;42.516;23.358;2023-03-04T14:12:00;87996.81;;;4.23;65.73
8047;BME280;67150;42.516;23.358;2023-03-04T14:14:49;87996.13;;;4.21;66.04
8047;BME280;67150;42.516;23.358;2023-03-04T14:17:37;87996.00;;;4.23;65.91
8047;BME280;67150;42.516;23.358;2023-03-04T14:20:25;87997.72;;;4.22;65.79
8047;BME280;67150;42.516;23.358;2023-03-04T14:23:25;87999.31;;;4.23;65.74
8047;BME280;67150;42.516;23.358;2023-03-04T14:26:14;87990.44;;;4.19;66.05
8047;BME280;67150;42.516;23.358;2023-03-04T14:29:02;87991.22;;;4.20;66.58
8047;BME280;67150;42.516;23.358;2023-03-04T14:31:47;87990.31;;;4.21;66.41
8047;BME280;67150;42.516;23.358;2023-03-04T14:34:36;87992.81;;;4.21;66.95
8047;BME280;67150;42.516;23.358;2023-03-04T14:37:24;87993.53;;;4.23;66.70
8047;BME280;67150;42.516;23.358;2023-03-04T14:40:19;87993.44;;;4.24;66.64
8047;BME280;67150;42.516;23.358;2023-03-04T14:43:10;87986.84;;;4.23;66.77
8047;BME280;67150;42.516;23.358;2023-03-04T14:46:00;87983.47;;;4.24;67.24
8047;BME280;67150;42.516;23.358;2023-03-04T14:48:49;87980.97;;;4.24;67.65
8047;BME280;67150;42.516;23.358;2023-03-04T14:51:41;87986.03;;;4.23;67.75
8047;BME280;67150;42.516;23.358;2023-03-04T14:54:34;87985.97;;;4.24;67.70
8047;BME280;67150;42.516;23.358;2023-03-04T14:57:24;87980.09;;;4.25;67.68
8047;BME280;67150;42.516;23.358;2023-03-04T15:00:16;87984.00;;;4.29;68.58
8047;BME280;67150;42.516;23.358;2023-03-04T15:03:04;87979.13;;;4.28;69.33
8047;BME280;67150;42.516;23.358;2023-03-04T15:05:52;87978.31;;;4.27;68.91
8047;BME280;67150;42.516;23.358;2023-03-04T15:08:39;87975.66;;;4.30;68.71
8047;BME280;67150;42.516;23.358;2023-03-04T15:11:27;87970.72;;;4.29;69.18
8047;BME280;67150;42.516;23.358;2023-03-04T15:14:44;87963.34;;;4.27;69.30
8047;BME280;67150;42.516;23.358;2023-03-04T15:17:33;87956.22;;;4.21;68.56